Time;durP1;ratioP1;P1;durP2;ratioP2;P2;SDS_P1;SDS_P2;PMS_P1;PMS_P2;Temp;Humidity;BMP_temperature;BMP_pressure;BME280_temperature;BME280_humidity;BME280_pressure;Samples;Min_cycle;Max_cycle;Signal;HPM_P1;HPM_P2
2022/04/10 00:01:38;;;;;;;0.90;0.70;;;7.30;99.90;;;;;;5009928;28;20041;-72
2022/04/10 00:04:04;;;;;;;1.42;1.02;;;7.20;99.90;;;;;;5013362;28;20022;-72
2022/04/10 00:06:30;;;;;;;0.77;0.70;;;7.20;99.90;;;;;;5011756;28;20053;-73
2022/04/10 00:08:56;;;;;;;1.50;0.80;;;7.10;99.90;;;;;;5010245;28;20498;-72
2022/04/10 00:11:22;;;;;;;1.38;1.05;;;7.10;99.90;;;;;;5009188;28;20029;-73
2022/04/10 00:13:48;;;;;;;1.73;1.10;;;7.10;99.90;;;;;;5009180;28;20549;-72
2022/04/10 00:16:14;;;;;;;2.85;0.95;;;7.00;99.90;;;;;;5012201;28;20029;-73
2022/04/10 00:18:39;;;;;;;2.05;1.45;;;7.10;99.90;;;;;;5011320;28;20076;-73
2022/04/10 00:21:06;;;;;;;0.93;0.93;;;7.10;99.90;;;;;;5012067;28;20489;-72
2022/04/10 00:23:32;;;;;;;1.77;0.88;;;7.10;99.90;;;;;;5011313;28;20122;-72
2022/04/10 00:25:58;;;;;;;1.95;1.08;;;7.00;99.90;;;;;;5009753;28;20038;-72
2022/04/10 00:28:23;;;;;;;1.10;1.00;;;7.00;99.90;;;;;;5011565;28;20159;-72
2022/04/10 00:30:49;;;;;;;3.75;1.70;;;6.90;99.90;;;;;;5009083;28;20042;-74
2022/04/10 00:33:15;;;;;;;1.15;1.05;;;6.80;99.90;;;;;;5012386;28;20029;-73
2022/04/10 00:35:41;;;;;;;1.55;1.23;;;6.80;99.90;;;;;;5009720;28;20516;-71
2022/04/10 00:38:07;;;;;;;1.35;0.90;;;6.80;99.90;;;;;;5011606;28;20034;-72
2022/04/10 00:40:33;;;;;;;2.13;1.52;;;6.80;99.90;;;;;;5010014;28;20151;-72
2022/04/10 00:42:58;;;;;;;2.63;1.25;;;6.70;99.90;;;;;;5009153;28;20072;-73
2022/04/10 00:45:24;;;;;;;1.30;1.15;;;6.90;99.90;;;;;;5010849;28;20037;-73
2022/04/10 00:47:51;;;;;;;1.60;0.95;;;6.90;99.90;;;;;;5010404;28;20084;-73
2022/04/10 00:50:18;;;;;;;2.58;1.70;;;6.80;99.90;;;;;;5008871;28;20510;-72
2022/04/10 00:52:46;;;;;;;1.23;1.00;;;6.60;99.90;;;;;;5008300;28;20042;-72
2022/04/10 00:55:13;;;;;;;2.95;0.98;;;6.60;99.90;;;;;;5010239;28;20045;-72
2022/04/10 00:57:39;;;;;;;1.85;1.35;;;6.60;99.90;;;;;;5012336;28;20060;-73
2022/04/10 01:00:09;;;;;;;1.52;1.27;;;6.70;99.90;;;;;;5011569;28;20034;-73
2022/04/10 01:02:36;;;;;;;3.42;2.13;;;6.70;99.90;;;;;;5010195;28;20037;-72
2022/04/10 01:05:03;;;;;;;1.88;1.67;;;7.00;99.90;;;;;;5011158;28;20036;-71
2022/04/10 01:07:28;;;;;;;2.17;1.70;;;7.10;99.90;;;;;;5011591;28;20025;-74
2022/04/10 01:09:55;;;;;;;4.10;2.33;;;7.10;99.90;;;;;;5010695;28;20034;-71
2022/04/10 01:12:21;;;;;;;3.08;2.05;;;7.10;99.90;;;;;;5008579;28;20076;-72
2022/04/10 01:14:48;;;;;;;2.25;2.00;;;7.10;99.90;;;;;;5010995;28;20029;-73
2022/04/10 01:17:14;;;;;;;2.85;2.13;;;7.20;99.90;;;;;;5011110;28;20022;-72
2022/04/10 01:19:41;;;;;;;6.65;2.38;;;7.30;99.90;;;;;;5015823;28;20033;-73
2022/04/10 01:22:09;;;;;;;4.60;2.40;;;7.10;99.90;;;;;;5013021;28;20064;-72
2022/04/10 01:24:39;;;;;;;3.65;1.75;;;7.10;99.90;;;;;;5015105;28;20033;-72
2022/04/10 01:27:06;;;;;;;2.72;2.05;;;7.10;99.90;;;;;;5014811;28;20026;-72
2022/04/10 01:29:32;;;;;;;2.00;1.80;;;7.30;99.90;;;;;;5015028;28;20026;-72
2022/04/10 01:31:59;;;;;;;3.15;2.38;;;7.20;99.90;;;;;;5011048;28;20041;-73
2022/04/10 01:34:25;;;;;;;2.65;2.45;;;7.30;99.90;;;;;;5008776;28;20030;-72
2022/04/10 01:36:50;;;;;;;2.70;2.30;;;7.20;99.90;;;;;;5023534;28;20029;-74
2022/04/10 01:39:16;;;;;;;3.53;2.38;;;7.10;99.90;;;;;;5010688;28;20042;-71
2022/04/10 01:41:44;;;;;;;2.17;1.88;;;7.00;99.90;;;;;;5005814;28;20021;-73
2022/04/10 01:44:10;;;;;;;1.85;1.73;;;6.80;99.90;;;;;;5005401;28;20510;-73
2022/04/10 01:46:36;;;;;;;4.30;2.08;;;7.00;99.90;;;;;;5007157;28;20117;-74
2022/04/10 01:49:05;;;;;;;2.72;2.15;;;6.90;99.90;;;;;;5006343;28;20034;-71
2022/04/10 01:51:31;;;;;;;2.80;2.60;;;6.80;99.90;;;;;;5010262;28;20474;-73
2022/04/10 01:53:57;;;;;;;2.72;2.03;;;6.60;99.90;;;;;;5011200;28;20033;-72
2022/04/10 01:56:24;;;;;;;2.63;1.88;;;6.70;99.90;;;;;;5009522;28;20089;-72
2022/04/10 01:58:52;;;;;;;2.50;2.15;;;6.60;99.90;;;;;;5007135;28;20181;-72
2022/04/10 02:01:18;;;;;;;2.78;2.33;;;6.50;99.90;;;;;;5007900;28;20113;-71
2022/04/10 02:03:47;;;;;;;2.33;2.13;;;6.50;99.90;;;;;;5008841;28;20034;-72
2022/04/10 02:06:14;;;;;;;4.72;2.25;;;6.40;99.90;;;;;;5010507;28;20438;-72
2022/04/10 02:08:44;;;;;;;3.15;1.90;;;6.40;99.90;;;;;;5011511;28;20413;-72
2022/04/10 02:11:18;;;;;;;3.45;2.22;;;6.30;99.90;;;;;;5008152;28;20041;-72
2022/04/10 02:13:45;;;;;;;3.45;2.35;;;6.30;99.90;;;;;;5007326;28;20732;-72
2022/04/10 02:16:12;;;;;;;6.55;2.95;;;6.30;99.90;;;;;;5008134;28;20037;-73
2022/04/10 02:18:38;;;;;;;5.15;2.58;;;6.30;99.90;;;;;;5015752;28;20196;-73
2022/04/10 02:21:04;;;;;;;3.85;2.40;;;6.30;99.90;;;;;;5022191;28;20035;-73
2022/04/10 02:23:31;;;;;;;4.75;2.63;;;6.30;99.90;;;;;;5011256;28;20017;-73
2022/04/10 02:25:57;;;;;;;2.33;2.13;;;6.40;99.90;;;;;;5009984;28;20029;-73
2022/04/10 02:28:22;;;;;;;2.17;1.98;;;6.40;99.90;;;;;;5008365;28;20037;-72
2022/04/10 02:30:48;;;;;;;2.28;2.08;;;6.40;99.90;;;;;;5006289;28;20034;-72
2022/04/10 02:33:14;;;;;;;2.53;1.88;;;6.40;99.90;;;;;;5006995;28;20426;-72
2022/04/10 02:35:43;;;;;;;3.35;2.00;;;6.30;99.90;;;;;;5005927;28;20055;-72
2022/04/10 02:38:09;;;;;;;2.38;2.17;;;6.20;99.90;;;;;;5006128;28;20495;-72
2022/04/10 02:41:15;;;;;;;3.72;2.17;;;6.40;99.90;;;;;;5008515;28;20037;-72
2022/04/10 02:43:41;;;;;;;2.72;2.28;;;6.50;99.90;;;;;;5001240;28;20025;-73
2022/04/10 02:46:07;;;;;;;2.42;2.08;;;6.40;99.90;;;;;;5007982;28;20030;-72
2022/04/10 02:48:33;;;;;;;3.92;3.67;;;6.30;99.90;;;;;;5009743;28;20022;-72
2022/04/10 02:50:59;;;;;;;5.25;3.28;;;6.20;99.90;;;;;;5009060;28;20030;-73
2022/04/10 02:53:24;;;;;;;5.45;3.05;;;6.20;99.90;;;;;;5008189;28;20030;-71
2022/04/10 02:55:50;;;;;;;4.85;3.15;;;6.20;99.90;;;;;;5011991;28;20100;-73
2022/04/10 03:01:38;;;;;;;4.05;2.70;;;6.00;99.90;;;;;;5004767;28;20049;-72
2022/04/10 03:04:07;;;;;;;4.53;2.70;;;5.90;99.90;;;;;;5008850;28;20418;-73
2022/04/10 03:06:32;;;;;;;3.58;2.85;;;5.80;99.90;;;;;;5009693;28;20014;-72
2022/04/10 03:08:58;;;;;;;4.30;2.95;;;5.80;99.90;;;;;;5010486;28;20492;-72
2022/04/10 03:11:25;;;;;;;5.78;3.47;;;5.80;99.90;;;;;;5009583;28;20061;-72
2022/04/10 03:13:51;;;;;;;3.60;3.08;;;5.80;99.90;;;;;;5008211;28;20030;-73
2022/04/10 03:16:17;;;;;;;4.50;3.45;;;5.70;99.90;;;;;;5010387;28;20168;-72
2022/04/10 03:18:43;;;;;;;3.75;2.85;;;5.70;99.90;;;;;;5009511;28;20151;-73
2022/04/10 03:21:08;;;;;;;4.47;3.13;;;5.70;99.90;;;;;;5009544;28;20033;-74
2022/04/10 03:23:34;;;;;;;3.78;2.88;;;5.70;99.90;;;;;;5008796;28;20494;-74
2022/04/10 03:26:00;;;;;;;3.30;3.00;;;5.80;99.90;;;;;;5009546;28;20080;-74
2022/04/10 03:28:25;;;;;;;5.45;2.97;;;5.80;99.90;;;;;;5012545;28;20026;-73
2022/04/10 03:30:51;;;;;;;2.65;2.45;;;5.70;99.90;;;;;;5016149;28;20041;-73
2022/04/10 03:33:17;;;;;;;6.45;2.70;;;5.70;99.90;;;;;;5012873;28;20041;-72
2022/04/10 03:35:43;;;;;;;5.25;4.35;;;5.60;99.90;;;;;;5014117;28;20037;-73
2022/04/10 03:38:08;;;;;;;3.80;2.83;;;5.50;99.90;;;;;;5010000;28;20060;-72
2022/04/10 03:40:34;;;;;;;7.05;3.08;;;5.40;99.90;;;;;;5012024;28;20022;-74
2022/04/10 03:43:00;;;;;;;5.35;2.42;;;5.40;99.90;;;;;;5009131;28;20481;-73
2022/04/10 03:45:26;;;;;;;3.25;2.92;;;5.40;99.90;;;;;;5014983;28;20030;-73
2022/04/10 03:47:52;;;;;;;3.28;3.00;;;5.40;99.90;;;;;;5014556;28;20096;-73
2022/04/10 03:50:18;;;;;;;3.80;2.67;;;5.30;99.90;;;;;;5015676;28;20072;-73
2022/04/10 03:52:44;;;;;;;6.35;3.03;;;5.30;99.90;;;;;;5010370;28;20026;-72
2022/04/10 03:55:10;;;;;;;4.07;3.20;;;5.30;99.90;;;;;;5013952;28;20026;-73
2022/04/10 03:57:36;;;;;;;5.28;3.03;;;5.30;99.90;;;;;;5016933;28;20018;-73
2022/04/10 04:00:02;;;;;;;4.63;3.92;;;5.30;99.90;;;;;;5016226;28;20481;-71
2022/04/10 04:02:27;;;;;;;7.60;3.85;;;5.30;99.90;;;;;;5013894;28;20022;-73
2022/04/10 04:04:53;;;;;;;6.38;3.33;;;5.20;99.90;;;;;;5012357;28;20085;-72
2022/04/10 04:07:19;;;;;;;3.63;3.33;;;5.10;99.90;;;;;;5013038;28;20021;-73
2022/04/10 04:09:44;;;;;;;4.82;3.97;;;5.10;99.90;;;;;;5009873;28;20022;-73
2022/04/10 04:12:10;;;;;;;5.90;3.95;;;5.10;99.90;;;;;;5007596;28;20037;-72
2022/04/10 04:14:36;;;;;;;11.25;7.43;;;5.00;99.90;;;;;;5009532;28;20084;-72
2022/04/10 04:17:02;;;;;;;4.57;3.97;;;5.00;99.90;;;;;;5012317;28;20029;-72
2022/04/10 04:19:28;;;;;;;5.78;4.25;;;5.00;99.90;;;;;;5010947;28;20076;-72
2022/04/10 04:21:54;;;;;;;4.97;3.70;;;4.90;99.90;;;;;;5014606;28;20398;-73
2022/04/10 04:24:19;;;;;;;7.50;4.60;;;4.90;99.90;;;;;;5006857;28;20460;-72
2022/04/10 04:26:45;;;;;;;5.40;4.50;;;4.90;99.90;;;;;;5011074;28;20108;-74
2022/04/10 04:29:11;;;;;;;5.25;3.95;;;4.80;99.90;;;;;;5013624;28;20084;-72
2022/04/10 04:31:37;;;;;;;6.50;4.57;;;4.80;99.90;;;;;;5003298;28;20398;-72
2022/04/10 04:34:02;;;;;;;5.65;4.90;;;5.00;99.90;;;;;;5011443;28;20034;-72
2022/04/10 04:36:28;;;;;;;4.70;4.07;;;4.90;99.90;;;;;;5013236;28;20586;-73
2022/04/10 04:38:56;;;;;;;7.75;4.10;;;5.00;99.90;;;;;;5012176;28;20124;-73
2022/04/10 04:41:22;;;;;;;9.38;4.60;;;4.90;99.90;;;;;;5011393;28;20075;-73
2022/04/10 04:43:48;;;;;;;12.75;4.30;;;4.90;99.90;;;;;;5013944;28;20101;-74
2022/04/10 04:46:14;;;;;;;5.00;3.28;;;5.00;99.90;;;;;;5012778;28;20466;-74
2022/04/10 04:48:40;;;;;;;4.93;3.90;;;5.00;99.90;;;;;;5013444;28;20406;-72
2022/04/10 04:51:05;;;;;;;5.35;3.53;;;4.90;99.90;;;;;;5012167;28;20034;-73
2022/04/10 04:53:31;;;;;;;5.65;2.47;;;4.90;99.90;;;;;;5010633;28;20072;-71
2022/04/10 04:55:57;;;;;;;5.90;4.57;;;5.00;99.90;;;;;;5011337;28;20076;-73
2022/04/10 04:58:22;;;;;;;4.70;3.28;;;5.10;99.90;;;;;;5013948;28;20041;-73
2022/04/10 05:00:48;;;;;;;4.57;2.60;;;5.20;99.90;;;;;;5010443;28;20389;-74
2022/04/10 05:03:17;;;;;;;7.57;3.35;;;5.20;99.90;;;;;;5014391;28;20022;-74
2022/04/10 05:05:43;;;;;;;3.83;3.10;;;5.30;99.90;;;;;;5013924;28;20025;-72
2022/04/10 05:08:08;;;;;;;5.65;3.38;;;5.20;99.90;;;;;;5014085;28;20076;-73
2022/04/10 05:10:34;;;;;;;5.30;3.10;;;5.30;99.90;;;;;;5016057;28;21926;-73
2022/04/10 05:13:00;;;;;;;3.85;2.50;;;5.40;99.90;;;;;;5013543;28;20041;-72
2022/04/10 05:15:26;;;;;;;5.28;2.53;;;5.30;99.90;;;;;;5012908;28;20441;-73
2022/04/10 05:17:51;;;;;;;4.78;2.42;;;5.40;99.90;;;;;;5014088;28;20041;-75
2022/04/10 05:20:17;;;;;;;3.13;2.40;;;5.40;99.90;;;;;;5010748;28;20069;-72
2022/04/10 05:22:43;;;;;;;6.00;2.58;;;5.50;99.90;;;;;;5013912;28;20049;-73
2022/04/10 05:25:09;;;;;;;5.03;2.40;;;5.50;99.90;;;;;;5014813;28;20378;-73
2022/04/10 05:27:35;;;;;;;3.50;2.80;;;5.60;99.90;;;;;;5015870;28;20488;-74
2022/04/10 05:30:02;;;;;;;3.92;2.25;;;5.60;99.90;;;;;;5013502;28;20034;-73
2022/04/10 05:32:27;;;;;;;13.63;4.25;;;5.70;99.90;;;;;;5015173;28;20088;-74
2022/04/10 05:34:53;;;;;;;3.13;2.83;;;5.70;99.90;;;;;;5012247;28;20026;-74
2022/04/10 05:37:19;;;;;;;8.18;4.60;;;5.70;99.90;;;;;;5012918;28;20025;-75
2022/04/10 05:39:44;;;;;;;4.13;2.97;;;5.70;99.90;;;;;;5008417;28;20474;-74
2022/04/10 05:42:10;;;;;;;3.35;2.78;;;5.70;99.90;;;;;;5013774;28;20034;-74
2022/04/10 05:44:36;;;;;;;5.43;2.97;;;5.80;99.90;;;;;;5017699;28;20026;-72
2022/04/10 05:47:03;;;;;;;2.60;2.25;;;5.90;99.90;;;;;;5014055;28;20637;-72
2022/04/10 05:49:28;;;;;;;3.95;2.85;;;5.90;99.90;;;;;;5011144;28;20032;-70
2022/04/10 05:51:54;;;;;;;5.15;3.60;;;6.00;99.90;;;;;;5009449;28;20026;-68
2022/04/10 05:54:20;;;;;;;6.22;3.13;;;6.10;99.90;;;;;;5006983;28;20992;-72
2022/04/10 05:56:45;;;;;;;3.20;2.70;;;6.20;99.90;;;;;;5012664;28;20049;-70
2022/04/10 05:59:11;;;;;;;4.95;3.38;;;6.20;99.90;;;;;;5008020;28;20037;-70
2022/04/10 06:01:37;;;;;;;5.13;2.45;;;6.30;99.90;;;;;;5016879;28;20038;-69
2022/04/10 06:04:03;;;;;;;4.90;2.55;;;6.50;99.90;;;;;;5015714;28;20097;-68
2022/04/10 06:06:29;;;;;;;3.95;3.10;;;6.60;99.90;;;;;;5014581;28;20421;-69
2022/04/10 06:08:54;;;;;;;7.30;2.75;;;6.80;99.90;;;;;;5009237;28;20378;-69
2022/04/10 06:11:20;;;;;;;4.30;2.92;;;6.90;99.90;;;;;;5016533;28;20038;-69
2022/04/10 06:13:46;;;;;;;4.55;2.38;;;7.00;99.90;;;;;;5016354;28;20033;-69
2022/04/10 06:16:12;;;;;;;5.43;3.30;;;7.10;99.90;;;;;;5023445;28;20122;-69
2022/04/10 06:18:37;;;;;;;4.03;2.67;;;7.20;99.90;;;;;;5016555;28;20517;-69
2022/04/10 06:21:03;;;;;;;4.47;2.78;;;7.20;99.90;;;;;;5015254;28;20110;-70
2022/04/10 06:23:29;;;;;;;3.53;2.45;;;7.40;99.90;;;;;;5011226;28;20030;-71
2022/04/10 06:25:54;;;;;;;6.63;3.72;;;7.50;99.90;;;;;;5002384;28;20127;-70
2022/04/10 06:28:20;;;;;;;5.50;3.50;;;7.60;99.90;;;;;;5010950;28;20037;-70
2022/04/10 06:30:46;;;;;;;2.63;2.25;;;7.50;99.90;;;;;;5008606;28;20029;-71
2022/04/10 06:33:14;;;;;;;3.38;2.20;;;7.60;99.90;;;;;;5005519;28;20107;-70
2022/04/10 06:35:41;;;;;;;2.10;1.90;;;7.80;99.90;;;;;;5009570;28;20032;-69
2022/04/10 06:38:07;;;;;;;4.93;2.47;;;7.80;99.90;;;;;;5008368;28;20038;-70
2022/04/10 06:40:33;;;;;;;4.13;2.50;;;7.80;99.90;;;;;;5009578;28;20040;-70
2022/04/10 06:42:58;;;;;;;5.43;3.40;;;7.90;99.90;;;;;;5008424;28;20442;-69
2022/04/10 06:45:24;;;;;;;6.15;3.97;;;8.00;99.90;;;;;;5011285;28;20026;-70
2022/04/10 06:47:50;;;;;;;9.77;4.00;;;8.10;99.90;;;;;;5010507;28;20029;-70
2022/04/10 06:50:15;;;;;;;6.35;4.90;;;8.20;99.90;;;;;;5021105;28;20037;-70
2022/04/10 06:52:42;;;;;;;4.55;3.50;;;8.30;99.90;;;;;;5006871;28;20463;-69
2022/04/10 06:55:08;;;;;;;6.32;3.97;;;8.40;99.90;;;;;;5010248;28;20603;-71
2022/04/10 06:57:34;;;;;;;4.72;4.30;;;8.50;99.90;;;;;;5011370;28;20017;-69
2022/04/10 07:00:00;;;;;;;6.80;4.13;;;8.70;99.90;;;;;;5009679;28;20120;-70
2022/04/10 07:02:25;;;;;;;9.10;4.75;;;8.80;99.90;;;;;;5002429;28;20088;-69
2022/04/10 07:04:51;;;;;;;6.00;4.10;;;8.80;99.90;;;;;;5009416;28;20379;-73
2022/04/10 07:07:17;;;;;;;6.95;3.88;;;8.80;99.90;;;;;;5003186;28;20371;-70
2022/04/10 07:09:43;;;;;;;7.53;4.07;;;8.90;99.90;;;;;;5001912;28;20033;-69
2022/04/10 07:12:09;;;;;;;3.92;3.55;;;9.00;99.90;;;;;;4999916;28;20061;-72
2022/04/10 07:14:35;;;;;;;6.20;2.88;;;9.00;99.90;;;;;;5001018;28;20022;-70
2022/04/10 07:17:01;;;;;;;7.57;3.28;;;9.00;99.90;;;;;;5006561;28;20088;-70
2022/04/10 07:19:27;;;;;;;5.32;3.97;;;9.10;99.90;;;;;;5009929;28;20048;-72
2022/04/10 07:24:37;;;;;;;5.95;3.38;;;9.20;99.90;;;;;;5009803;28;20048;-71
2022/04/10 07:27:03;;;;;;;3.72;3.42;;;9.30;99.90;;;;;;5011616;28;20478;-70
2022/04/10 07:29:28;;;;;;;4.03;2.20;;;9.30;99.90;;;;;;5012955;28;20029;-71
2022/04/10 07:31:55;;;;;;;3.33;2.92;;;9.20;99.90;;;;;;5020798;28;20034;-69
2022/04/10 07:34:30;;;;;;;4.95;3.30;;;9.20;99.90;;;;;;5014176;28;20033;-70
2022/04/10 07:36:55;;;;;;;4.15;2.72;;;9.10;99.90;;;;;;5008872;28;20022;-71
2022/04/10 07:39:21;;;;;;;4.80;2.70;;;9.30;99.90;;;;;;5014714;28;20037;-70
2022/04/10 07:41:57;;;;;;;3.90;2.60;;;9.30;99.90;;;;;;5012927;28;20027;-70
2022/04/10 07:44:23;;;;;;;4.15;2.58;;;9.30;99.90;;;;;;5005244;28;20049;-69
2022/04/10 07:49:33;;;;;;;2.70;2.50;;;9.40;99.90;;;;;;5013198;28;20501;-71
2022/04/10 07:51:59;;;;;;;3.40;2.72;;;9.50;99.90;;;;;;5012864;28;20034;-69
2022/04/10 07:54:25;;;;;;;3.38;2.97;;;9.50;99.90;;;;;;5014472;28;20022;-70
2022/04/10 07:56:54;;;;;;;4.50;3.55;;;9.70;99.90;;;;;;5009013;28;20049;-71
2022/04/10 07:59:20;;;;;;;3.25;2.78;;;9.70;99.90;;;;;;5013525;28;20034;-71
2022/04/10 08:01:46;;;;;;;6.22;2.75;;;9.80;99.90;;;;;;5013824;28;20030;-70
2022/04/10 08:04:12;;;;;;;3.20;2.80;;;9.80;99.90;;;;;;5016788;28;20102;-70
2022/04/10 08:06:38;;;;;;;2.55;1.95;;;9.80;99.90;;;;;;5014584;28;20499;-69
2022/04/10 08:09:04;;;;;;;3.35;1.98;;;9.70;99.90;;;;;;5014297;28;20379;-72
2022/04/10 08:11:29;;;;;;;2.45;1.77;;;9.70;99.90;;;;;;5015198;28;20026;-70
2022/04/10 08:13:55;;;;;;;3.58;1.90;;;9.70;99.90;;;;;;5012927;28;20026;-71
2022/04/10 08:16:21;;;;;;;1.95;1.80;;;9.70;99.90;;;;;;5004491;28;20042;-73
2022/04/10 08:18:47;;;;;;;5.10;2.28;;;9.60;99.90;;;;;;5004945;28;20040;-72
2022/04/10 08:21:16;;;;;;;1.67;1.40;;;9.60;99.90;;;;;;5012581;28;20026;-70
2022/04/10 08:23:42;;;;;;;2.05;1.83;;;9.60;99.90;;;;;;5016575;28;20021;-72
2022/04/10 08:26:07;;;;;;;3.22;1.50;;;9.60;99.90;;;;;;5015610;28;20030;-72
2022/04/10 08:28:34;;;;;;;2.85;1.85;;;9.70;99.90;;;;;;5016498;28;20497;-73
2022/04/10 08:31:02;;;;;;;1.77;1.58;;;9.80;99.90;;;;;;5014514;28;20029;-69
2022/04/10 08:33:28;;;;;;;4.88;4.38;;;9.90;99.90;;;;;;5015405;28;20053;-71
2022/04/10 08:35:54;;;;;;;10.10;6.07;;;9.90;99.90;;;;;;5008133;28;20030;-72
2022/04/10 08:38:23;;;;;;;6.13;5.60;;;9.80;99.90;;;;;;5013472;28;20385;-71
2022/04/10 08:40:54;;;;;;;5.75;5.10;;;9.90;99.90;;;;;;5015120;28;20073;-71
2022/04/10 08:43:21;;;;;;;6.07;3.33;;;9.90;99.90;;;;;;5009717;28;20048;-72
2022/04/10 08:45:47;;;;;;;3.45;2.78;;;9.90;99.90;;;;;;5013834;28;20025;-69
2022/04/10 08:48:14;;;;;;;2.92;1.48;;;10.00;99.90;;;;;;5011041;28;20037;-70
2022/04/10 08:50:39;;;;;;;3.63;2.30;;;10.00;99.90;;;;;;5014362;28;20037;-71
2022/04/10 08:53:07;;;;;;;6.03;3.53;;;10.00;99.90;;;;;;5008340;28;20033;-73
2022/04/10 08:55:35;;;;;;;2.42;2.22;;;10.00;99.90;;;;;;5012152;28;20367;-74
2022/04/10 08:58:03;;;;;;;2.40;1.42;;;10.10;99.90;;;;;;5007034;28;20116;-73
2022/04/10 09:00:29;;;;;;;3.38;1.88;;;10.10;99.90;;;;;;5011870;28;20055;-71
2022/04/10 09:02:55;;;;;;;2.28;2.05;;;10.10;99.90;;;;;;5014863;28;20053;-71
2022/04/10 09:05:25;;;;;;;3.25;1.85;;;10.10;99.90;;;;;;5016294;28;20037;-71
2022/04/10 09:08:11;;;;;;;2.75;2.05;;;10.20;99.90;;;;;;5015466;28;20022;-72
2022/04/10 09:10:55;;;;;;;2.60;2.10;;;10.00;99.90;;;;;;5011677;28;20037;-74
2022/04/10 09:13:29;;;;;;;3.88;2.50;;;10.30;99.90;;;;;;5015038;28;20406;-73
2022/04/10 09:16:24;;;;;;;4.65;2.70;;;10.40;99.90;;;;;;5006214;28;20071;-71
2022/04/10 09:18:58;;;;;;;1.75;1.65;;;10.50;99.90;;;;;;5013923;28;20417;-73
2022/04/10 09:21:33;;;;;;;2.72;2.28;;;10.40;99.90;;;;;;5015905;28;20030;-71
2022/04/10 09:24:07;;;;;;;3.95;2.50;;;10.40;99.90;;;;;;5010410;28;20030;-71
2022/04/10 09:26:57;;;;;;;4.05;2.72;;;10.40;99.90;;;;;;5011939;28;20030;-74
2022/04/10 09:29:24;;;;;;;4.28;1.92;;;10.50;99.90;;;;;;5011548;28;20033;-72
2022/04/10 09:31:51;;;;;;;2.03;1.83;;;10.50;99.90;;;;;;5018108;28;20173;-73
2022/04/10 09:34:22;;;;;;;2.80;1.85;;;10.60;99.90;;;;;;5011896;28;20171;-70
2022/04/10 09:36:58;;;;;;;3.90;2.35;;;10.60;99.90;;;;;;5012457;28;20121;-70
2022/04/10 09:39:31;;;;;;;2.53;2.22;;;10.60;99.90;;;;;;5009647;28;20085;-71
2022/04/10 09:42:10;;;;;;;2.25;1.70;;;10.60;99.90;;;;;;5012941;28;20119;-70
2022/04/10 09:44:38;;;;;;;2.05;1.48;;;10.60;99.90;;;;;;5010097;28;20397;-72
2022/04/10 09:47:06;;;;;;;1.70;1.60;;;10.60;99.90;;;;;;5014244;28;20030;-70
2022/04/10 09:49:34;;;;;;;6.95;2.95;;;10.60;99.90;;;;;;5015543;28;20501;-71
2022/04/10 09:52:03;;;;;;;2.88;1.92;;;10.60;99.90;;;;;;5011348;28;20042;-71
2022/04/10 09:54:44;;;;;;;2.20;1.98;;;10.50;99.90;;;;;;5006791;28;20072;-70
2022/04/10 09:57:17;;;;;;;5.10;2.75;;;10.60;99.90;;;;;;5010170;28;20026;-71
2022/04/10 09:59:45;;;;;;;5.63;2.08;;;10.60;99.90;;;;;;5010930;28;20393;-72
2022/04/10 10:02:13;;;;;;;2.08;1.42;;;10.70;99.90;;;;;;5009950;28;20036;-71
2022/04/10 10:04:41;;;;;;;2.92;1.80;;;10.70;99.90;;;;;;5006328;28;20537;-71
2022/04/10 10:07:11;;;;;;;2.25;1.30;;;10.90;99.90;;;;;;5010889;28;20487;-70
2022/04/10 10:09:38;;;;;;;1.85;1.58;;;10.90;99.90;;;;;;5012891;28;20018;-71
2022/04/10 10:12:05;;;;;;;3.97;1.90;;;10.90;99.90;;;;;;5011727;28;20076;-72
2022/04/10 10:14:32;;;;;;;4.20;2.03;;;11.00;99.90;;;;;;5012787;28;20425;-71
2022/04/10 10:16:59;;;;;;;5.82;2.08;;;11.10;99.90;;;;;;5010920;28;20038;-71
2022/04/10 10:19:26;;;;;;;2.80;1.83;;;11.10;99.90;;;;;;5012384;28;20026;-72
2022/04/10 10:21:54;;;;;;;4.22;1.67;;;11.10;99.90;;;;;;5008916;28;20470;-70
2022/04/10 10:24:23;;;;;;;2.67;1.25;;;11.00;99.90;;;;;;5011161;28;20112;-71
2022/04/10 10:27:10;;;;;;;3.20;1.60;;;11.00;99.90;;;;;;5012283;28;20048;-70
2022/04/10 10:30:11;;;;;;;5.20;1.75;;;11.10;99.90;;;;;;5012799;28;20026;-72
2022/04/10 10:32:44;;;;;;;6.15;1.52;;;11.00;99.90;;;;;;5008585;28;20087;-72
2022/04/10 10:35:26;;;;;;;1.95;1.55;;;11.10;99.90;;;;;;5011009;28;20030;-72
2022/04/10 10:37:53;;;;;;;4.00;1.25;;;11.10;99.90;;;;;;5012115;28;20026;-72
2022/04/10 10:40:20;;;;;;;2.58;1.40;;;11.20;99.90;;;;;;5012226;28;20441;-71
2022/04/10 10:42:51;;;;;;;3.65;1.25;;;11.20;99.90;;;;;;5010140;28;20025;-73
2022/04/10 10:45:36;;;;;;;2.65;1.55;;;11.20;99.90;;;;;;5011780;28;20049;-73
2022/04/10 10:48:25;;;;;;;2.70;1.20;;;11.30;99.90;;;;;;5011650;28;20070;-71
2022/04/10 10:50:52;;;;;;;1.70;1.10;;;11.30;99.90;;;;;;5011659;28;20033;-70
2022/04/10 10:53:23;;;;;;;0.55;0.50;;;11.30;99.90;;;;;;5010461;28;20037;-71
2022/04/10 10:55:52;;;;;;;1.70;1.13;;;11.20;99.90;;;;;;5011339;28;20033;-71
2022/04/10 10:58:31;;;;;;;2.10;1.42;;;11.20;99.90;;;;;;5011862;28;20359;-70
2022/04/10 11:01:04;;;;;;;2.25;1.05;;;11.20;99.90;;;;;;5006604;28;20080;-70
2022/04/10 11:03:30;;;;;;;1.90;1.33;;;11.40;99.90;;;;;;5006072;28;20551;-71
2022/04/10 11:06:14;;;;;;;5.75;1.48;;;11.40;99.90;;;;;;5011224;28;20029;-72
2022/04/10 11:08:40;;;;;;;3.03;1.60;;;11.50;99.90;;;;;;5011052;28;20036;-70
2022/04/10 11:11:07;;;;;;;1.60;1.50;;;11.70;99.90;;;;;;5004563;28;20625;-70
2022/04/10 11:13:42;;;;;;;2.58;2.00;;;11.70;99.90;;;;;;5009200;28;20026;-72
2022/04/10 11:16:15;;;;;;;2.20;1.40;;;11.70;99.90;;;;;;5012415;28;20030;-71
2022/04/10 11:18:50;;;;;;;4.15;2.13;;;11.70;99.90;;;;;;5008681;28;20084;-70
2022/04/10 11:21:21;;;;;;;1.88;1.40;;;11.60;99.90;;;;;;5004412;28;20029;-72
2022/04/10 11:23:48;;;;;;;4.05;1.75;;;11.60;99.90;;;;;;5007954;28;20026;-72
2022/04/10 11:26:20;;;;;;;1.38;1.27;;;11.60;99.90;;;;;;5010806;28;20418;-71
2022/04/10 11:29:07;;;;;;;2.80;1.85;;;11.50;99.90;;;;;;5009586;28;20099;-71
2022/04/10 11:31:35;;;;;;;5.38;1.33;;;11.60;99.90;;;;;;5007401;28;20390;-70
2022/04/10 11:34:21;;;;;;;2.22;1.92;;;11.50;99.90;;;;;;5009332;28;20161;-70
2022/04/10 11:36:52;;;;;;;2.70;1.52;;;11.60;99.90;;;;;;5011469;28;20029;-70
2022/04/10 11:39:29;;;;;;;2.85;1.42;;;11.60;99.90;;;;;;5010827;28;20026;-70
2022/04/10 11:42:00;;;;;;;3.47;1.33;;;11.70;99.90;;;;;;5011917;28;20104;-71
2022/04/10 11:44:27;;;;;;;1.98;1.35;;;11.70;99.90;;;;;;5009301;28;20060;-70
2022/04/10 11:46:53;;;;;;;2.17;1.55;;;11.50;99.90;;;;;;5003290;28;20077;-73
2022/04/10 11:49:19;;;;;;;3.15;2.38;;;11.70;99.90;;;;;;5011072;28;20040;-70
2022/04/10 11:51:56;;;;;;;3.00;1.88;;;11.60;99.90;;;;;;5008753;28;20121;-71
2022/04/10 11:54:35;;;;;;;1.83;1.63;;;11.60;99.90;;;;;;5012888;28;20433;-70
2022/04/10 11:57:05;;;;;;;2.58;1.63;;;11.70;99.90;;;;;;5012504;28;20030;-70
2022/04/10 11:59:39;;;;;;;8.05;1.63;;;11.70;99.90;;;;;;5013168;28;20147;-71
2022/04/10 12:02:08;;;;;;;1.55;1.45;;;11.80;99.90;;;;;;5010396;28;20076;-71
2022/04/10 12:04:37;;;;;;;0.85;0.85;;;11.80;99.90;;;;;;5013962;28;20373;-74
2022/04/10 12:07:18;;;;;;;1.88;0.98;;;11.70;99.90;;;;;;5013478;28;20045;-72
2022/04/10 12:09:46;;;;;;;4.93;2.00;;;11.60;99.90;;;;;;5013420;28;20037;-72
2022/04/10 12:12:12;;;;;;;3.15;2.53;;;11.60;99.90;;;;;;5010667;28;20129;-71
2022/04/10 12:14:38;;;;;;;4.03;1.63;;;11.80;99.90;;;;;;5013804;28;20030;-71
2022/04/10 12:17:10;;;;;;;2.03;1.50;;;11.80;99.90;;;;;;5011135;28;20029;-72
2022/04/10 12:19:36;;;;;;;1.63;1.52;;;11.80;99.90;;;;;;5013254;28;20117;-70
2022/04/10 12:22:07;;;;;;;1.00;0.80;;;11.80;99.90;;;;;;5013614;28;20054;-71
2022/04/10 12:24:35;;;;;;;1.65;0.93;;;11.90;99.90;;;;;;5012304;28;20026;-71
2022/04/10 12:27:05;;;;;;;2.47;0.77;;;12.10;99.90;;;;;;5014344;28;20026;-71
2022/04/10 12:29:31;;;;;;;1.85;0.70;;;12.10;99.90;;;;;;5013328;28;20131;-72
2022/04/10 12:31:58;;;;;;;3.08;0.65;;;12.10;99.90;;;;;;5013782;28;20025;-71
2022/04/10 12:34:30;;;;;;;1.95;0.82;;;12.00;99.90;;;;;;5012582;28;20017;-72
2022/04/10 12:37:12;;;;;;;3.33;0.77;;;12.00;99.90;;;;;;5014339;28;20037;-71
2022/04/10 12:39:39;;;;;;;5.05;1.08;;;12.00;99.90;;;;;;5008998;28;20030;-71
2022/04/10 12:42:10;;;;;;;3.05;1.13;;;12.00;99.90;;;;;;5010850;28;20030;-71
2022/04/10 12:44:37;;;;;;;2.15;1.23;;;12.00;99.90;;;;;;5006668;28;20021;-72
2022/04/10 12:47:07;;;;;;;0.80;0.80;;;12.00;99.90;;;;;;5014591;28;20288;-72
2022/04/10 12:49:34;;;;;;;1.25;1.15;;;12.00;99.90;;;;;;5014554;28;20022;-74
2022/04/10 12:52:03;;;;;;;1.45;0.80;;;12.10;99.90;;;;;;5012493;28;20041;-72
2022/04/10 12:54:50;;;;;;;1.45;0.98;;;12.30;99.90;;;;;;5014211;28;20302;-73
2022/04/10 12:57:28;;;;;;;6.68;1.08;;;12.30;99.90;;;;;;5012530;28;20041;-70
2022/04/10 12:59:55;;;;;;;1.27;0.90;;;12.40;99.90;;;;;;5014931;28;20026;-70
2022/04/10 13:02:28;;;;;;;1.83;0.88;;;12.50;99.90;;;;;;5015840;28;21353;-72
2022/04/10 13:04:55;;;;;;;1.67;0.93;;;12.40;99.90;;;;;;5015066;28;20020;-71
2022/04/10 13:07:21;;;;;;;1.35;0.80;;;12.50;99.90;;;;;;5012124;28;20465;-72